createdAt,value
2018-05-06T00:01:06.778Z,19.83
2018-05-06T00:03:35.870Z,18.80
2018-05-06T00:06:04.982Z,19.67
2018-05-06T00:08:34.083Z,18.87
2018-05-06T00:11:03.186Z,19.13
2018-05-06T00:13:32.294Z,21.23
2018-05-06T00:16:01.403Z,20.63
2018-05-06T00:18:30.504Z,20.10
2018-05-06T00:20:59.616Z,17.83
2018-05-06T00:23:28.715Z,18.60
2018-05-06T00:25:57.826Z,18.17
2018-05-06T00:28:26.931Z,18.90
2018-05-06T00:30:56.046Z,18.40
2018-05-06T00:33:25.146Z,19.07
2018-05-06T00:35:54.256Z,20.60
2018-05-06T00:38:23.350Z,18.37
2018-05-06T00:40:52.459Z,18.67
2018-05-06T00:43:21.572Z,19.63
2018-05-06T00:45:50.678Z,19.13
2018-05-06T00:48:19.788Z,18.80
2018-05-06T00:50:48.894Z,19.27
2018-05-06T00:53:18.004Z,20.10
2018-05-06T00:55:47.118Z,19.57
2018-05-06T00:58:16.215Z,20.10
2018-05-06T01:00:45.313Z,20.50
2018-05-06T01:03:14.429Z,20.70
2018-05-06T01:05:43.535Z,18.40
2018-05-06T01:08:12.643Z,18.90
2018-05-06T01:10:41.756Z,19.87
2018-05-06T01:13:10.854Z,18.93
2018-05-06T01:15:39.965Z,19.60
2018-05-06T01:18:09.055Z,19.80
2018-05-06T01:20:38.164Z,20.40
2018-05-06T01:23:07.269Z,20.63
2018-05-06T01:25:36.387Z,19.80
2018-05-06T01:28:05.495Z,21.03
2018-05-06T01:30:34.615Z,21.03
2018-05-06T01:33:03.718Z,20.80
2018-05-06T01:35:32.835Z,20.13
2018-05-06T01:38:01.935Z,22.03
2018-05-06T01:40:31.049Z,22.77
2018-05-06T01:43:00.144Z,22.60
2018-05-06T01:45:29.261Z,22.33
2018-05-06T01:47:58.350Z,22.77
2018-05-06T01:50:27.476Z,21.10
2018-05-06T01:52:56.579Z,22.37
2018-05-06T01:55:25.703Z,21.20
2018-05-06T01:57:54.813Z,21.90
2018-05-06T02:00:23.927Z,22.37
2018-05-06T02:02:53.027Z,22.30
2018-05-06T02:05:22.135Z,22.70
2018-05-06T02:07:51.238Z,21.60
2018-05-06T02:10:20.355Z,22.47
2018-05-06T02:12:49.463Z,21.63
2018-05-06T02:15:18.583Z,19.97
2018-05-06T02:17:47.683Z,19.57
2018-05-06T02:20:16.807Z,21.47
2018-05-06T02:22:45.957Z,20.97
2018-05-06T02:25:15.027Z,20.80
2018-05-06T02:27:44.144Z,21.17
2018-05-06T02:30:13.278Z,19.60
2018-05-06T02:32:42.387Z,20.47
2018-05-06T02:35:11.497Z,20.17
2018-05-06T02:37:40.803Z,20.00
2018-05-06T02:40:09.915Z,18.97
2018-05-06T02:42:39.019Z,20.63
2018-05-06T02:45:08.135Z,20.30
2018-05-06T02:47:37.235Z,22.27
2018-05-06T02:50:06.356Z,21.13
2018-05-06T02:52:35.456Z,20.40
2018-05-06T02:55:04.566Z,20.80
2018-05-06T02:57:33.666Z,21.60
2018-05-06T03:00:02.783Z,22.80
2018-05-06T03:02:31.896Z,20.07
2018-05-06T03:05:01.018Z,19.10
2018-05-06T03:07:30.115Z,19.33
2018-05-06T03:09:59.238Z,20.27
2018-05-06T03:12:28.352Z,20.07
2018-05-06T03:14:57.465Z,19.90
2018-05-06T03:17:26.567Z,18.60
2018-05-06T03:19:55.679Z,19.23
2018-05-06T03:22:24.784Z,19.33
2018-05-06T03:24:53.899Z,20.13
2018-05-06T03:27:23.006Z,19.40
2018-05-06T03:29:52.124Z,18.07
2018-05-06T03:32:21.230Z,20.93
2018-05-06T03:34:50.349Z,19.73
2018-05-06T03:37:19.462Z,21.43
2018-05-06T03:39:48.558Z,21.60
2018-05-06T03:42:17.666Z,21.80
2018-05-06T03:44:46.767Z,21.70
2018-05-06T03:47:15.883Z,22.73
2018-05-06T03:49:44.988Z,22.63
2018-05-06T03:52:14.094Z,22.43
2018-05-06T03:54:43.205Z,22.13
2018-05-06T03:57:28.047Z,21.73
2018-05-06T04:00:03.063Z,21.37
2018-05-06T04:02:34.912Z,21.23
2018-05-06T04:05:04.035Z,24.83
2018-05-06T04:07:33.146Z,21.90
2018-05-06T04:10:03.087Z,22.83
2018-05-06T04:12:32.208Z,21.47
2018-05-06T04:15:01.302Z,21.30
2018-05-06T04:17:30.412Z,23.10
2018-05-06T04:19:59.511Z,20.93
2018-05-06T04:22:28.623Z,21.03
2018-05-06T04:24:57.723Z,21.37
2018-05-06T04:27:26.848Z,25.33
2018-05-06T04:29:55.947Z,24.43
2018-05-06T04:32:25.052Z,23.70
2018-05-06T04:34:54.154Z,24.00
2018-05-06T04:37:23.272Z,24.33
2018-05-06T04:39:52.377Z,22.80
2018-05-06T04:42:21.491Z,24.33
2018-05-06T04:44:50.608Z,20.60
2018-05-06T04:47:19.736Z,21.27
2018-05-06T04:49:48.831Z,20.17
2018-05-06T04:52:17.938Z,18.60
2018-05-06T04:54:47.038Z,21.23
2018-05-06T04:57:16.163Z,18.83
2018-05-06T04:59:45.270Z,19.43
2018-05-06T05:02:14.382Z,17.70
2018-05-06T05:04:43.487Z,18.90
2018-05-06T05:07:12.599Z,17.10
2018-05-06T05:09:41.695Z,17.00
2018-05-06T05:12:10.808Z,16.50
2018-05-06T05:14:39.914Z,16.63
2018-05-06T05:17:09.020Z,15.47
2018-05-06T05:19:38.124Z,15.13
2018-05-06T05:22:07.242Z,15.13
2018-05-06T05:24:36.346Z,14.63
2018-05-06T05:27:05.455Z,16.27
2018-05-06T05:29:34.558Z,16.10
2018-05-06T05:32:03.670Z,14.60
2018-05-06T05:34:32.844Z,16.07
2018-05-06T05:37:01.887Z,16.13
2018-05-06T05:39:30.986Z,14.60
2018-05-06T05:42:01.017Z,15.80
2018-05-06T05:44:30.122Z,15.50
2018-05-06T05:46:59.232Z,15.77
2018-05-06T05:49:28.330Z,17.60
2018-05-06T05:51:57.438Z,15.20
2018-05-06T05:54:26.557Z,15.97
2018-05-06T05:56:55.680Z,17.03
2018-05-06T05:59:24.801Z,17.20
2018-05-06T06:01:53.971Z,16.97
2018-05-06T06:04:23.071Z,18.63
2018-05-06T06:06:52.315Z,18.70
2018-05-06T06:09:21.449Z,16.57
2018-05-06T06:11:50.571Z,19.73
2018-05-06T06:14:19.667Z,18.53
2018-05-06T06:16:48.774Z,17.37
2018-05-06T06:19:17.883Z,16.43
2018-05-06T06:21:46.992Z,15.90
2018-05-06T06:24:16.094Z,19.10
2018-05-06T06:26:45.207Z,16.23
2018-05-06T06:29:14.312Z,15.50
2018-05-06T06:31:43.426Z,16.43
2018-05-06T06:34:12.535Z,16.87
2018-05-06T06:36:41.644Z,16.87
2018-05-06T06:39:10.747Z,15.50
2018-05-06T06:41:39.854Z,17.60
2018-05-06T06:44:08.951Z,18.17
2018-05-06T06:46:38.058Z,16.63
2018-05-06T06:49:07.153Z,17.83
2018-05-06T06:51:36.265Z,17.10
2018-05-06T06:54:10.291Z,16.33
2018-05-06T06:56:37.776Z,17.00
2018-05-06T06:59:05.224Z,17.20
2018-05-06T07:01:32.683Z,19.50
2018-05-06T07:04:00.128Z,17.63
2018-05-06T07:06:27.599Z,17.70
2018-05-06T07:08:55.051Z,19.97
2018-05-06T07:11:22.559Z,18.90
2018-05-06T07:13:49.943Z,20.07
2018-05-06T07:16:17.403Z,20.90
2018-05-06T07:18:49.010Z,18.87
2018-05-06T07:21:18.180Z,18.93
2018-05-06T07:23:45.649Z,20.50
2018-05-06T07:26:13.134Z,19.23
2018-05-06T07:28:41.372Z,18.00
2018-05-06T07:31:08.833Z,19.57
2018-05-06T07:33:36.404Z,17.70
2018-05-06T07:36:03.896Z,17.53
2018-05-06T07:38:32.180Z,17.57
2018-05-06T07:40:59.626Z,18.30
2018-05-06T07:43:32.336Z,17.70
2018-05-06T07:46:09.958Z,16.80
2018-05-06T07:48:37.466Z,14.53
2018-05-06T07:51:04.937Z,15.83
2018-05-06T07:53:32.400Z,14.40
2018-05-06T07:55:59.853Z,14.30
2018-05-06T07:58:27.318Z,14.30
2018-05-06T08:00:55.785Z,14.93
2018-05-06T08:03:23.247Z,12.70
2018-05-06T08:05:50.710Z,12.07
2018-05-06T08:08:18.192Z,11.77
2018-05-06T08:10:45.719Z,11.60
2018-05-06T08:13:13.108Z,10.27
2018-05-06T08:15:40.610Z,9.97
2018-05-06T08:18:08.834Z,9.07
2018-05-06T08:20:36.283Z,9.87
2018-05-06T08:23:03.745Z,9.70
2018-05-06T08:25:31.194Z,9.00
2018-05-06T08:27:58.651Z,8.10
2018-05-06T08:30:26.083Z,7.40
2018-05-06T08:32:53.544Z,6.30
2018-05-06T08:35:20.991Z,6.80
2018-05-06T08:37:48.443Z,5.63
2018-05-06T08:40:15.894Z,6.20
2018-05-06T08:42:44.115Z,6.40
2018-05-06T08:45:11.565Z,6.30
2018-05-06T08:47:39.033Z,6.80
2018-05-06T08:50:06.464Z,6.53
2018-05-06T08:52:33.925Z,5.60
2018-05-06T08:55:01.380Z,5.20
2018-05-06T08:57:28.827Z,5.70
2018-05-06T08:59:56.275Z,6.03
2018-05-06T09:02:24.492Z,6.13
2018-05-06T09:04:51.935Z,5.73
2018-05-06T09:07:19.392Z,6.10
2018-05-06T09:09:46.833Z,5.40
2018-05-06T09:12:14.296Z,5.73
2018-05-06T09:14:41.740Z,6.37
2018-05-06T09:17:09.215Z,5.43
2018-05-06T09:19:36.781Z,6.00
2018-05-06T09:22:04.117Z,5.53
2018-05-06T09:24:31.568Z,5.40
2018-05-06T09:26:59.020Z,5.90
2018-05-06T09:29:26.490Z,5.87
2018-05-06T09:31:53.947Z,4.80
2018-05-06T09:34:21.403Z,5.50
2018-05-06T09:36:48.843Z,4.63
2018-05-06T09:39:16.310Z,5.20
2018-05-06T09:41:43.749Z,4.40
2018-05-06T09:44:11.976Z,4.73
2018-05-06T09:46:39.416Z,5.93
2018-05-06T09:49:06.880Z,4.53
2018-05-06T09:51:34.326Z,4.47
2018-05-06T09:54:01.804Z,4.70
2018-05-06T09:56:29.260Z,5.00
2018-05-06T09:58:56.711Z,4.83
2018-05-06T10:01:24.153Z,5.40
2018-05-06T10:03:51.601Z,4.30
2018-05-06T10:06:19.058Z,4.27
2018-05-06T10:08:46.501Z,4.30
2018-05-06T10:11:14.732Z,4.20
2018-05-06T10:13:42.177Z,4.07
2018-05-06T10:16:09.633Z,3.87
2018-05-06T10:18:37.095Z,3.90
2018-05-06T10:21:04.556Z,3.63
2018-05-06T10:23:32.011Z,3.90
2018-05-06T10:25:59.472Z,3.90
2018-05-06T10:28:26.933Z,3.80
2018-05-06T10:30:54.396Z,3.50
2018-05-06T10:33:21.855Z,3.77
2018-05-06T10:35:49.314Z,3.43
2018-05-06T10:38:16.769Z,3.70
2018-05-06T10:40:44.225Z,3.90
2018-05-06T10:43:11.692Z,3.30
2018-05-06T10:45:39.162Z,3.20
2018-05-06T10:48:07.397Z,2.70
2018-05-06T10:50:44.375Z,3.30
2018-05-06T10:53:11.824Z,3.40
2018-05-06T10:55:40.052Z,3.07
2018-05-06T10:58:08.274Z,3.13
2018-05-06T11:00:35.742Z,2.67
2018-05-06T11:03:03.197Z,2.73
2018-05-06T11:05:30.686Z,2.73
2018-05-06T11:07:58.169Z,2.70
2018-05-06T11:10:26.475Z,2.97
2018-05-06T11:12:53.853Z,2.70
2018-05-06T11:15:21.305Z,2.30
2018-05-06T11:17:49.810Z,2.30
2018-05-06T11:20:17.227Z,2.60
2018-05-06T11:22:45.490Z,3.00
2018-05-06T11:25:12.957Z,2.37
2018-05-06T11:27:40.571Z,2.50
2018-05-06T11:30:08.881Z,2.20
2018-05-06T11:32:36.413Z,2.73
2018-05-06T11:35:03.962Z,2.00
2018-05-06T11:37:32.250Z,2.17
2018-05-06T11:40:00.514Z,2.00
2018-05-06T11:42:28.808Z,1.80
2018-05-06T11:44:56.278Z,1.93
2018-05-06T11:47:23.764Z,2.20
2018-05-06T11:49:51.241Z,2.00
2018-05-06T11:52:18.715Z,1.97
2018-05-06T11:54:46.974Z,2.37
2018-05-06T11:57:14.449Z,2.10
2018-05-06T11:59:42.736Z,1.90
2018-05-06T12:02:10.981Z,2.53
2018-05-06T12:04:38.450Z,1.90
2018-05-06T12:07:05.915Z,2.30
2018-05-06T12:09:33.369Z,1.60
2018-05-06T12:12:01.624Z,2.50
2018-05-06T12:14:29.079Z,1.67
2018-05-06T12:16:56.551Z,1.63
2018-05-06T12:19:24.020Z,2.30
2018-05-06T12:21:51.571Z,2.70
2018-05-06T12:24:19.725Z,2.20
2018-05-06T12:26:47.197Z,2.13
2018-05-06T12:29:14.653Z,2.40
2018-05-06T12:31:42.116Z,1.90
2018-05-06T12:34:09.569Z,2.20
2018-05-06T12:36:37.047Z,2.00
2018-05-06T12:39:05.280Z,1.73
2018-05-06T12:41:32.752Z,2.10
2018-05-06T12:44:00.210Z,2.27
2018-05-06T12:46:27.670Z,1.63
2018-05-06T12:48:55.124Z,2.20
2018-05-06T12:51:22.600Z,2.77
2018-05-06T12:53:50.049Z,2.20
2018-05-06T12:56:17.512Z,2.30
2018-05-06T12:58:44.966Z,2.10
2018-05-06T13:01:12.421Z,1.67
2018-05-06T13:03:39.870Z,1.80
2018-05-06T13:06:07.338Z,1.87
2018-05-06T13:08:34.796Z,2.20
2018-05-06T13:11:02.256Z,1.40
2018-05-06T13:13:29.721Z,2.07
2018-05-06T13:15:57.938Z,2.00
2018-05-06T13:18:25.399Z,1.57
2018-05-06T13:20:52.848Z,2.00
2018-05-06T13:23:20.322Z,2.70
2018-05-06T13:25:47.774Z,2.17
2018-05-06T13:28:15.240Z,2.40
2018-05-06T13:30:42.704Z,2.10
2018-05-06T13:33:10.220Z,2.23
2018-05-06T13:35:37.672Z,1.77
2018-05-06T13:38:05.145Z,2.13
2018-05-06T13:40:32.604Z,2.20
2018-05-06T13:43:00.078Z,2.80
2018-05-06T13:45:27.609Z,2.77
2018-05-06T13:47:55.077Z,2.50
2018-05-06T13:50:22.566Z,2.20
2018-05-06T13:52:50.039Z,2.20
2018-05-06T13:55:17.489Z,2.40
2018-05-06T13:57:44.981Z,2.43
2018-05-06T14:00:13.217Z,2.53
2018-05-06T14:02:40.686Z,1.90
2018-05-06T14:05:08.212Z,2.17
2018-05-06T14:07:35.664Z,2.20
2018-05-06T14:10:03.132Z,1.83
2018-05-06T14:12:30.599Z,2.20
2018-05-06T14:14:58.053Z,2.23
2018-05-06T14:17:25.522Z,2.23
2018-05-06T14:19:52.989Z,2.80
2018-05-06T14:22:20.480Z,2.13
2018-05-06T14:24:47.959Z,2.17
2018-05-06T14:27:15.447Z,2.10
2018-05-06T14:29:42.916Z,2.80
2018-05-06T14:32:10.404Z,2.80
2018-05-06T14:34:38.645Z,2.23
2018-05-06T14:37:06.108Z,2.00
2018-05-06T14:39:33.631Z,2.23
2018-05-06T14:42:01.064Z,1.93
2018-05-06T14:44:28.521Z,2.27
2018-05-06T14:47:07.893Z,2.90
2018-05-06T14:49:35.404Z,1.80
2018-05-06T14:52:03.631Z,2.13
2018-05-06T14:54:31.081Z,1.77
2018-05-06T14:56:58.541Z,2.23
2018-05-06T14:59:26.006Z,1.80
2018-05-06T15:01:53.482Z,2.00
2018-05-06T15:04:20.988Z,2.00
2018-05-06T15:06:48.465Z,2.60
2018-05-06T15:09:15.920Z,1.77
2018-05-06T15:11:43.424Z,2.40
2018-05-06T15:14:11.688Z,1.90
2018-05-06T15:16:39.141Z,2.60
2018-05-06T15:19:06.689Z,2.13
2018-05-06T15:21:34.867Z,2.60
2018-05-06T15:24:02.371Z,2.07
2018-05-06T15:26:29.850Z,2.37
2018-05-06T15:28:57.326Z,2.07
2018-05-06T15:31:24.796Z,2.23
2018-05-06T15:33:52.273Z,2.00
2018-05-06T15:36:20.497Z,1.87
2018-05-06T15:38:48.741Z,3.57
2018-05-06T15:41:17.017Z,2.40
2018-05-06T15:43:44.528Z,1.83
2018-05-06T15:46:11.994Z,1.97
2018-05-06T15:48:39.449Z,1.80
2018-05-06T15:51:06.912Z,2.50
2018-05-06T15:53:34.374Z,2.20
2018-05-06T15:56:02.308Z,2.03
2018-05-06T15:58:29.787Z,1.70
2018-05-06T16:00:57.242Z,2.57
2018-05-06T16:03:36.447Z,2.30
2018-05-06T16:06:05.655Z,2.10
2018-05-06T16:08:33.141Z,2.30
2018-05-06T16:11:00.588Z,2.23
2018-05-06T16:13:28.066Z,2.00
2018-05-06T16:15:55.526Z,2.13
2018-05-06T16:18:23.011Z,2.37
2018-05-06T16:20:50.438Z,2.27
2018-05-06T16:23:18.001Z,2.23
2018-05-06T16:25:45.478Z,2.00
2018-05-06T16:28:13.748Z,2.43
2018-05-06T16:30:41.207Z,1.70
2018-05-06T16:33:09.437Z,1.63
2018-05-06T16:35:36.895Z,2.40
2018-05-06T16:38:04.331Z,2.30
2018-05-06T16:40:31.796Z,1.93
2018-05-06T16:42:59.246Z,1.83
2018-05-06T16:45:26.991Z,2.10
2018-05-06T16:47:54.596Z,2.13
2018-05-06T16:50:23.043Z,1.53
2018-05-06T16:52:50.528Z,1.77
2018-05-06T16:55:17.987Z,1.60
2018-05-06T16:57:45.476Z,2.07
2018-05-06T17:00:15.653Z,1.90
2018-05-06T17:02:43.110Z,2.00
2018-05-06T17:05:10.581Z,2.07
2018-05-06T17:07:38.051Z,1.87
2018-05-06T17:10:05.527Z,1.73
2018-05-06T17:12:33.753Z,2.13
2018-05-06T17:15:01.336Z,2.00
2018-05-06T17:17:28.813Z,1.90
2018-05-06T17:19:56.291Z,1.87
2018-05-06T17:22:24.610Z,2.30
2018-05-06T17:24:52.073Z,1.70
2018-05-06T17:27:19.545Z,1.57
2018-05-06T17:29:47.023Z,1.67
2018-05-06T17:32:14.489Z,2.57
2018-05-06T17:34:41.985Z,1.70
2018-05-06T17:37:09.450Z,1.60
2018-05-06T17:39:36.967Z,1.60
2018-05-06T17:42:04.437Z,2.13
2018-05-06T17:44:32.156Z,1.80
2018-05-06T17:46:59.604Z,1.40
2018-05-06T17:49:27.221Z,1.63
2018-05-06T17:51:54.745Z,1.23
2018-05-06T17:54:23.074Z,2.00
2018-05-06T17:56:50.527Z,1.13
2018-05-06T17:59:17.987Z,1.20
2018-05-06T18:01:45.489Z,1.70
2018-05-06T18:04:12.959Z,1.80
2018-05-06T18:06:41.185Z,1.40
2018-05-06T18:09:08.665Z,1.37
2018-05-06T18:11:36.173Z,1.43
2018-05-06T18:14:03.625Z,1.83
2018-05-06T18:16:31.131Z,1.50
2018-05-06T18:18:58.634Z,1.37
2018-05-06T18:21:27.089Z,1.37
2018-05-06T18:23:54.557Z,1.40
2018-05-06T18:26:22.030Z,2.20
2018-05-06T18:28:49.598Z,1.73
2018-05-06T18:31:17.109Z,1.30
2018-05-06T18:33:44.651Z,1.57
2018-05-06T18:36:12.133Z,1.67
2018-05-06T18:38:39.745Z,1.30
2018-05-06T18:41:07.281Z,1.93
2018-05-06T18:43:35.525Z,2.07
2018-05-06T18:46:02.997Z,1.77
2018-05-06T18:48:30.447Z,1.43
2018-05-06T18:50:57.920Z,1.63
2018-05-06T18:53:26.143Z,2.07
2018-05-06T18:55:53.626Z,1.73
2018-05-06T18:58:21.077Z,1.53
2018-05-06T19:00:49.104Z,1.77
2018-05-06T19:03:18.320Z,1.90
2018-05-06T19:05:45.861Z,1.80
2018-05-06T19:08:13.420Z,2.50
2018-05-06T19:10:41.711Z,2.07
2018-05-06T19:13:09.318Z,1.60
2018-05-06T19:15:37.578Z,1.80
2018-05-06T19:18:05.072Z,2.00
2018-05-06T19:20:32.643Z,2.00
2018-05-06T19:23:00.380Z,2.20
2018-05-06T19:25:28.665Z,2.10
2018-05-06T19:27:57.076Z,2.80
2018-05-06T19:30:26.247Z,2.30
2018-05-06T19:32:55.420Z,2.90
2018-05-06T19:35:24.776Z,2.83
2018-05-06T19:37:54.026Z,2.00
2018-05-06T19:40:23.200Z,2.23
2018-05-06T19:42:52.805Z,1.97
2018-05-06T19:45:22.007Z,2.23
2018-05-06T19:47:51.237Z,2.47
2018-05-06T19:50:20.381Z,2.33
2018-05-06T19:52:49.575Z,2.30
2018-05-06T19:55:18.870Z,2.53
2018-05-06T19:57:48.068Z,2.20
2018-05-06T20:00:17.200Z,1.80
2018-05-06T20:02:46.938Z,2.30
2018-05-06T20:05:16.178Z,2.40
2018-05-06T20:07:45.270Z,2.77
2018-05-06T20:10:14.363Z,2.90
2018-05-06T20:12:43.452Z,2.87
2018-05-06T20:15:12.549Z,2.90
2018-05-06T20:17:41.653Z,2.77
2018-05-06T20:20:10.847Z,2.40
2018-05-06T20:22:39.944Z,2.33
2018-05-06T20:25:07.394Z,2.20
2018-05-06T20:27:34.839Z,2.60
2018-05-06T20:30:02.295Z,1.93
2018-05-06T20:32:29.739Z,2.50
2018-05-06T20:34:57.960Z,2.63
2018-05-06T20:37:25.443Z,1.93
2018-05-06T20:39:52.896Z,2.60
2018-05-06T20:42:20.339Z,2.70
2018-05-06T20:44:47.809Z,3.07
2018-05-06T20:47:15.251Z,2.53
2018-05-06T20:49:42.707Z,2.27
2018-05-06T20:52:10.151Z,2.70
2018-05-06T20:54:37.600Z,2.30
2018-05-06T20:57:05.043Z,3.10
2018-05-06T20:59:32.491Z,2.70
2018-05-06T21:01:59.962Z,2.57
2018-05-06T21:04:28.147Z,2.77
2018-05-06T21:06:57.243Z,2.80
2018-05-06T21:09:26.345Z,2.23
2018-05-06T21:11:55.442Z,2.57
2018-05-06T21:14:24.547Z,2.80
2018-05-06T21:16:53.637Z,2.73
2018-05-06T21:19:22.743Z,2.50
2018-05-06T21:21:51.835Z,2.47
2018-05-06T21:24:20.939Z,2.73
2018-05-06T21:26:50.044Z,2.80
2018-05-06T21:29:19.147Z,2.60
2018-05-06T21:31:48.242Z,3.03
2018-05-06T21:34:17.341Z,2.73
2018-05-06T21:36:46.529Z,2.23
2018-05-06T21:39:15.542Z,2.17
2018-05-06T21:41:44.630Z,1.93
2018-05-06T21:44:13.718Z,2.43
2018-05-06T21:46:42.817Z,2.50
2018-05-06T21:49:11.902Z,1.80
2018-05-06T21:51:40.999Z,1.80
2018-05-06T21:54:10.094Z,1.50
2018-05-06T21:56:39.187Z,2.57
2018-05-06T21:59:08.297Z,2.80
2018-05-06T22:01:37.390Z,1.90
2018-05-06T22:04:06.482Z,1.53
2018-05-06T22:06:35.581Z,2.50
2018-05-06T22:09:05.415Z,2.10
2018-05-06T22:11:34.514Z,2.10
2018-05-06T22:14:03.604Z,2.60
2018-05-06T22:16:32.698Z,2.30
2018-05-06T22:19:01.786Z,2.23
2018-05-06T22:21:30.882Z,1.97
2018-05-06T22:23:59.969Z,1.90
2018-05-06T22:26:29.075Z,1.83
2018-05-06T22:28:58.171Z,1.73
2018-05-06T22:31:27.274Z,2.27
2018-05-06T22:33:56.366Z,1.57
2018-05-06T22:36:25.458Z,2.43
2018-05-06T22:38:54.556Z,2.33
2018-05-06T22:41:23.657Z,1.90
2018-05-06T22:43:52.750Z,1.70
2018-05-06T22:46:21.834Z,2.50
2018-05-06T22:48:50.935Z,1.97
2018-05-06T22:51:20.026Z,1.83
2018-05-06T22:53:49.131Z,2.53
2018-05-06T22:56:18.218Z,2.10
2018-05-06T22:58:47.307Z,2.30
2018-05-06T23:01:16.410Z,2.50
2018-05-06T23:03:45.497Z,1.90
2018-05-06T23:06:14.603Z,2.27
2018-05-06T23:08:43.691Z,1.60
2018-05-06T23:11:12.869Z,1.87
2018-05-06T23:13:41.875Z,1.70
2018-05-06T23:16:11.007Z,1.63
2018-05-06T23:18:40.071Z,1.60
2018-05-06T23:21:09.167Z,1.37
2018-05-06T23:23:38.293Z,2.13
2018-05-06T23:26:07.358Z,1.90
2018-05-06T23:28:36.454Z,2.07
2018-05-06T23:31:05.550Z,1.83
2018-05-06T23:33:34.634Z,1.80
2018-05-06T23:36:03.751Z,2.27
2018-05-06T23:38:32.838Z,1.77
2018-05-06T23:41:01.942Z,2.20
2018-05-06T23:43:31.032Z,1.70
2018-05-06T23:46:00.192Z,1.40
2018-05-06T23:48:29.232Z,2.20
2018-05-06T23:50:58.317Z,1.77
2018-05-06T23:53:27.411Z,1.60
2018-05-06T23:55:56.502Z,2.07
2018-05-06T23:58:25.641Z,2.00
